createdAt,value
2023-04-23T00:01:46.011Z,7.1
2023-04-23T00:04:14.271Z,7.7
2023-04-23T00:06:42.524Z,8.8
2023-04-23T00:09:10.782Z,7.1
2023-04-23T00:11:39.037Z,7.9
2023-04-23T00:14:07.290Z,8.2
2023-04-23T00:16:35.553Z,9.3
2023-04-23T00:17:50.300Z,7.5
2023-04-23T00:19:03.845Z,7.5
2023-04-23T00:21:32.099Z,8.6
2023-04-23T00:26:28.614Z,8.7
2023-04-23T00:28:56.876Z,8.1
2023-04-23T00:31:25.128Z,9.6
2023-04-23T00:33:53.384Z,10.6
2023-04-23T00:36:21.644Z,8.1
2023-04-23T00:38:49.900Z,8.8
2023-04-23T00:41:18.156Z,9.4
2023-04-23T00:42:32.882Z,8.9
2023-04-23T00:43:46.436Z,10.4
2023-04-23T00:46:14.694Z,8.5
2023-04-23T00:48:42.947Z,9.2
2023-04-23T00:51:11.204Z,9.7
2023-04-23T00:53:39.468Z,9.3
2023-04-23T00:58:35.981Z,8.4
2023-04-23T01:01:04.233Z,9.2
2023-04-23T01:03:32.489Z,9.2
2023-04-23T01:06:00.748Z,10
2023-04-23T01:07:15.478Z,10
2023-04-23T01:08:29.025Z,10.9
2023-04-23T01:10:57.278Z,11.2
2023-04-23T01:13:25.536Z,10.7
2023-04-23T01:15:53.794Z,10.8
2023-04-23T01:18:22.049Z,11.7
2023-04-23T01:20:50.305Z,13.1
2023-04-23T01:23:18.563Z,11.2
2023-04-23T01:25:46.827Z,12.8
2023-04-23T01:30:43.336Z,13.4
2023-04-23T01:31:58.065Z,12.7
2023-04-23T01:33:11.616Z,13.4
2023-04-23T01:35:39.872Z,13.4
2023-04-23T01:38:08.130Z,12.3
2023-04-23T01:40:36.386Z,13.7
2023-04-23T01:43:04.640Z,13.5
2023-04-23T01:45:32.896Z,13.2
2023-04-23T01:48:01.156Z,13.7
2023-04-23T01:50:29.415Z,13.5
2023-04-23T01:52:57.667Z,13.2
2023-04-23T01:55:25.923Z,13.4
2023-04-23T01:56:40.660Z,24.9
2023-04-23T02:00:22.691Z,37.3
2023-04-23T02:02:50.951Z,29
2023-04-23T02:05:19.205Z,32.2
2023-04-23T02:07:47.466Z,34.1
2023-04-23T02:10:15.715Z,38
2023-04-23T02:12:43.981Z,38.6
2023-04-23T02:15:12.236Z,38.6
2023-04-23T02:17:40.492Z,38.6
2023-04-23T02:20:08.746Z,35.1
2023-04-23T02:21:23.472Z,34.9
2023-04-23T02:22:37.024Z,34.2
2023-04-23T02:25:05.282Z,33.8
2023-04-23T02:27:33.532Z,34.1
2023-04-23T02:32:30.048Z,31
2023-04-23T02:34:58.306Z,32.1
2023-04-23T02:37:26.565Z,35
2023-04-23T02:39:54.814Z,35.1
2023-04-23T02:42:23.078Z,39.3
2023-04-23T02:44:51.332Z,29.7
2023-04-23T02:46:06.058Z,31.9
2023-04-23T02:47:19.606Z,40.8
2023-04-23T02:49:47.863Z,29.7
2023-04-23T02:52:16.121Z,32.7
2023-04-23T02:54:44.380Z,29.8
2023-04-23T02:57:12.631Z,29.1
2023-04-23T02:59:40.890Z,29.1
2023-04-23T03:04:37.403Z,31.4
2023-04-23T03:07:05.664Z,28.5
2023-04-23T03:09:33.921Z,27.3
2023-04-23T03:10:48.645Z,27.3
2023-04-23T03:12:02.192Z,26.6
2023-04-23T03:14:30.456Z,26.9
2023-04-23T03:16:58.705Z,26
2023-04-23T03:19:26.970Z,27.4
2023-04-23T03:21:55.227Z,26.5
2023-04-23T03:24:23.479Z,26.1
2023-04-23T03:26:51.741Z,24.8
2023-04-23T03:29:19.992Z,23.6
2023-04-23T03:31:48.252Z,23.4
2023-04-23T03:35:31.240Z,23.1
2023-04-23T03:36:44.780Z,23.9
2023-04-23T03:39:13.045Z,23.1
2023-04-23T03:41:41.308Z,25.3
2023-04-23T03:44:09.555Z,24.4
2023-04-23T03:46:37.813Z,22.8
2023-04-23T03:49:06.065Z,23.5
2023-04-23T03:51:34.329Z,24.8
2023-04-23T03:54:02.585Z,23.6
2023-04-23T03:56:30.841Z,23.6
2023-04-23T03:58:59.099Z,22.6
2023-04-23T04:00:13.829Z,23.2
2023-04-23T04:01:27.369Z,22
2023-04-23T04:06:23.887Z,23.1
2023-04-23T04:08:52.148Z,23.7
2023-04-23T04:11:20.403Z,21.7
2023-04-23T04:13:48.659Z,23.5
2023-04-23T04:16:16.911Z,21.1
2023-04-23T04:18:45.174Z,19.3
2023-04-23T04:21:13.429Z,19
2023-04-23T04:23:41.683Z,18.8
2023-04-23T04:24:56.412Z,16.1
2023-04-23T04:26:09.966Z,15.5
2023-04-23T04:28:38.224Z,15.6
2023-04-23T04:31:06.480Z,15.9
2023-04-23T04:33:34.736Z,13.3
2023-04-23T04:38:31.246Z,13.3
2023-04-23T04:40:59.507Z,13.6
2023-04-23T04:43:27.757Z,14.6
2023-04-23T04:45:56.023Z,11.6
2023-04-23T04:48:24.276Z,11.6
2023-04-23T04:49:39.010Z,12.2
2023-04-23T04:50:52.553Z,11.3
2023-04-23T04:53:20.811Z,10
2023-04-23T04:55:49.063Z,10.8
2023-04-23T04:58:17.327Z,10.2
2023-04-23T05:00:45.581Z,9.2
2023-04-23T05:03:13.836Z,10.1
2023-04-23T05:05:42.089Z,8.5
2023-04-23T05:10:38.604Z,12.4
2023-04-23T05:13:06.863Z,8.6
2023-04-23T05:14:21.596Z,8.2
2023-04-23T05:15:35.144Z,9.8
2023-04-23T05:18:03.396Z,9.2
2023-04-23T05:20:31.650Z,9.5
2023-04-23T05:22:59.915Z,8.5
2023-04-23T05:25:28.166Z,10
2023-04-23T05:27:56.425Z,8
2023-04-23T05:30:24.686Z,8.2
2023-04-23T05:32:52.936Z,9.6
2023-04-23T05:35:21.196Z,9.9
2023-04-23T05:37:49.450Z,8
2023-04-23T05:40:17.708Z,9.4
2023-04-23T05:42:45.966Z,8.9
2023-04-23T05:45:14.220Z,9.8
2023-04-23T05:47:42.479Z,9
2023-04-23T05:50:10.737Z,9.8
2023-04-23T05:52:38.991Z,9.3
2023-04-23T05:55:07.250Z,8.8
2023-04-23T05:57:35.501Z,9.7
2023-04-23T06:00:03.761Z,11.3
2023-04-23T06:02:32.021Z,9.6
2023-04-23T06:03:46.767Z,13
2023-04-23T06:05:00.309Z,10.4
2023-04-23T06:07:28.566Z,11.8
2023-04-23T06:12:25.078Z,12
2023-04-23T06:14:53.336Z,9.3
2023-04-23T06:17:21.596Z,13.8
2023-04-23T06:19:49.853Z,14.6
2023-04-23T06:22:18.107Z,12.2
2023-04-23T06:24:46.365Z,12.7
2023-04-23T06:27:14.623Z,12.2
2023-04-23T06:28:29.350Z,14.6
2023-04-23T06:29:42.896Z,13.9
2023-04-23T06:32:11.152Z,15.4
2023-04-23T06:34:39.414Z,15.7
2023-04-23T06:37:07.663Z,15.3
2023-04-23T06:39:35.926Z,12.2
2023-04-23T06:44:32.438Z,17.9
2023-04-23T06:47:00.694Z,16.3
2023-04-23T06:49:28.985Z,13
2023-04-23T06:51:57.207Z,13.3
2023-04-23T06:53:11.937Z,11.4
2023-04-23T06:54:25.481Z,13.5
2023-04-23T06:56:53.743Z,11.8
2023-04-23T06:59:21.994Z,12.5
2023-04-23T07:01:50.259Z,12.7
2023-04-23T07:04:18.512Z,13.5
2023-04-23T07:06:46.765Z,12.2
2023-04-23T07:09:15.019Z,12.3
2023-04-23T07:11:43.277Z,11.1
2023-04-23T07:16:39.796Z,11.7
2023-04-23T07:17:54.520Z,11.7
2023-04-23T07:19:08.071Z,11.8
2023-04-23T07:21:36.324Z,12.4
2023-04-23T07:24:04.576Z,12.4
2023-04-23T07:26:32.832Z,14.1
2023-04-23T07:29:01.092Z,11.1
2023-04-23T07:31:29.350Z,12.9
2023-04-23T07:33:57.608Z,12.4
2023-04-23T07:36:25.867Z,11.9
2023-04-23T07:38:54.124Z,11.7
2023-04-23T07:41:22.379Z,13.5
2023-04-23T07:42:37.104Z,11
2023-04-23T07:46:19.141Z,13.2
2023-04-23T07:48:47.401Z,12.4
2023-04-23T07:51:15.650Z,13.3
2023-04-23T07:53:43.910Z,11.4
2023-04-23T07:56:12.172Z,13.5
2023-04-23T07:58:40.428Z,11.8
2023-04-23T08:01:08.684Z,14.3
2023-04-23T08:03:36.934Z,11.1
2023-04-23T08:06:05.195Z,11.5
2023-04-23T08:07:19.920Z,12.2
2023-04-23T08:08:33.473Z,15
2023-04-23T08:11:01.732Z,13.5
2023-04-23T08:13:29.984Z,12.1
2023-04-23T08:18:26.496Z,12.3
2023-04-23T08:20:54.754Z,13.1
2023-04-23T08:23:23.016Z,11.1
2023-04-23T08:25:51.273Z,11
2023-04-23T08:28:19.525Z,12.7
2023-04-23T08:30:47.782Z,10.9
2023-04-23T08:32:02.519Z,13
2023-04-23T08:33:16.064Z,12.2
2023-04-23T08:35:44.322Z,10.2
2023-04-23T08:38:12.575Z,11.2
2023-04-23T08:40:40.835Z,9.8
2023-04-23T08:43:09.089Z,9.1
2023-04-23T08:45:37.345Z,9.2
2023-04-23T08:50:33.864Z,12.2
2023-04-23T08:53:02.122Z,11.6
2023-04-23T08:55:30.380Z,12
2023-04-23T08:56:45.104Z,9.9
2023-04-23T08:57:58.656Z,12.6
2023-04-23T09:00:26.912Z,10.7
2023-04-23T09:02:55.164Z,11
2023-04-23T09:05:23.427Z,10.4
2023-04-23T09:07:51.682Z,10.1
2023-04-23T09:10:19.939Z,9.2
2023-04-23T09:12:48.197Z,10.2
2023-04-23T09:15:16.445Z,10.7
2023-04-23T09:17:44.710Z,11.3
2023-04-23T09:21:27.688Z,9.3
2023-04-23T09:22:41.238Z,10.5
2023-04-23T09:25:09.492Z,10.6
2023-04-23T09:27:37.752Z,9.3
2023-04-23T09:30:06.008Z,9.6
2023-04-23T09:32:34.273Z,9.3
2023-04-23T09:35:02.524Z,8.2
2023-04-23T09:37:30.776Z,11.9
2023-04-23T09:39:59.039Z,9.5
2023-04-23T09:42:27.288Z,9.7
2023-04-23T09:44:55.550Z,9.4
2023-04-23T09:46:10.281Z,9.3
2023-04-23T09:47:23.821Z,10.4
2023-04-23T09:52:20.342Z,10
2023-04-23T09:54:48.591Z,10.2
2023-04-23T09:57:16.849Z,10.4
2023-04-23T09:59:45.109Z,9.5
2023-04-23T10:02:13.368Z,10.8
2023-04-23T10:04:41.620Z,8.3
2023-04-23T10:07:09.881Z,8.5
2023-04-23T10:09:38.130Z,7.4
2023-04-23T10:10:52.862Z,8.6
2023-04-23T10:12:06.408Z,7
2023-04-23T10:14:34.667Z,6.9
2023-04-23T10:17:02.928Z,8.6
2023-04-23T10:19:31.188Z,7.4
2023-04-23T10:24:27.697Z,7.2
2023-04-23T10:26:55.961Z,10.6
2023-04-23T10:29:24.214Z,8.2
2023-04-23T10:31:52.472Z,8.7
2023-04-23T10:34:20.728Z,8.2
2023-04-23T10:35:35.461Z,8.9
2023-04-23T10:36:49.006Z,10.1
2023-04-23T10:39:17.266Z,8.3
2023-04-23T10:41:45.524Z,8
2023-04-23T10:44:13.786Z,10.1
2023-04-23T10:46:42.037Z,8.6
2023-04-23T10:49:10.295Z,10.6
2023-04-23T10:51:38.555Z,8.6
2023-04-23T10:56:35.064Z,9.1
2023-04-23T10:59:03.329Z,11
2023-04-23T11:00:18.060Z,10.9
2023-04-23T11:01:31.602Z,9.5
2023-04-23T11:03:59.864Z,9.8
2023-04-23T11:06:28.115Z,10.4
2023-04-23T11:08:56.372Z,9.9
2023-04-23T11:11:24.630Z,9.6
2023-04-23T11:13:52.888Z,8
2023-04-23T11:16:21.145Z,10.1
2023-04-23T11:18:49.404Z,8
2023-04-23T11:21:17.652Z,8.1
2023-04-23T11:23:45.909Z,7.9
2023-04-23T11:26:14.174Z,8.1
2023-04-23T11:28:42.428Z,9.6
2023-04-23T11:31:10.687Z,12
2023-04-23T11:33:38.938Z,10.6
2023-04-23T11:36:07.197Z,10.8
2023-04-23T11:38:35.458Z,9.5
2023-04-23T11:41:03.710Z,10.2
2023-04-23T11:43:31.963Z,11.4
2023-04-23T11:46:00.223Z,10.9
2023-04-23T11:48:28.478Z,9.7
2023-04-23T11:49:43.222Z,11.9
2023-04-23T11:50:56.770Z,11.6
2023-04-23T11:53:25.034Z,9
2023-04-23T11:58:21.538Z,10.2
2023-04-23T12:00:49.794Z,10.9
2023-04-23T12:03:18.057Z,9.5
2023-04-23T12:05:46.312Z,10.7
2023-04-23T12:08:14.569Z,10.4
2023-04-23T12:10:42.827Z,10.4
2023-04-23T12:13:11.079Z,9.6
2023-04-23T12:14:25.813Z,11.2
2023-04-23T12:15:39.355Z,9.6
2023-04-23T12:18:07.609Z,9.8
2023-04-23T12:20:35.866Z,11.3
2023-04-23T12:23:04.129Z,11.1
2023-04-23T12:25:32.386Z,12.3
2023-04-23T12:30:28.891Z,10.4
2023-04-23T12:32:57.149Z,11.2
2023-04-23T12:35:25.405Z,10.8
2023-04-23T12:37:53.660Z,10.5
2023-04-23T12:39:08.398Z,10.6
2023-04-23T12:40:21.939Z,11
2023-04-23T12:42:50.196Z,10.6
2023-04-23T12:45:18.450Z,11.6
2023-04-23T12:47:46.706Z,13.1
2023-04-23T12:50:14.966Z,12.3
2023-04-23T12:52:43.226Z,11.9
2023-04-23T12:55:11.478Z,11.8
2023-04-23T12:57:39.741Z,11
2023-04-23T13:02:36.249Z,13.8
2023-04-23T13:03:50.986Z,11.6
2023-04-23T13:05:04.526Z,9.1
2023-04-23T13:07:32.788Z,9.5
2023-04-23T13:10:01.039Z,9.9
2023-04-23T13:12:29.295Z,11.2
2023-04-23T13:14:57.551Z,8.8
2023-04-23T13:17:25.807Z,10.4
2023-04-23T13:19:54.068Z,9.5
2023-04-23T13:22:22.322Z,7.9
2023-04-23T13:24:50.585Z,7.9
2023-04-23T13:27:18.836Z,8.5
2023-04-23T13:28:33.571Z,8.5
2023-04-23T13:32:15.609Z,8.4
2023-04-23T13:34:43.861Z,7.1
2023-04-23T13:37:12.118Z,6.7
2023-04-23T13:39:40.370Z,6.5
2023-04-23T13:42:08.636Z,6.4
2023-04-23T13:44:36.893Z,7.4
2023-04-23T13:47:05.148Z,6.9
2023-04-23T13:49:33.402Z,8.5
2023-04-23T13:52:01.659Z,6.8
2023-04-23T13:53:16.386Z,5.8
2023-04-23T13:54:29.931Z,5.5
2023-04-23T13:56:58.191Z,6.5
2023-04-23T13:59:26.453Z,8.3
2023-04-23T14:04:22.958Z,5.7
2023-04-23T14:06:51.221Z,7.1
2023-04-23T14:09:19.473Z,6.8
2023-04-23T14:11:47.731Z,5.7
2023-04-23T14:14:15.988Z,5.1
2023-04-23T14:16:44.249Z,5.1
2023-04-23T14:17:58.973Z,5.2
2023-04-23T14:19:12.521Z,5.6
2023-04-23T14:21:40.778Z,6.6
2023-04-23T14:24:09.033Z,5
2023-04-23T14:26:37.297Z,4.7
2023-04-23T14:29:05.551Z,7.7
2023-04-23T14:31:33.810Z,5.1
2023-04-23T14:36:30.318Z,5.8
2023-04-23T14:38:58.574Z,5.6
2023-04-23T14:41:26.834Z,5
2023-04-23T14:42:41.564Z,5.2
2023-04-23T14:43:55.112Z,5.9
2023-04-23T14:46:23.368Z,7.6
2023-04-23T14:48:51.620Z,5.4
2023-04-23T14:51:19.882Z,5.7
2023-04-23T14:53:48.137Z,6.7
2023-04-23T14:56:16.394Z,4.9
2023-04-23T14:58:44.653Z,5.5
2023-04-23T15:01:12.909Z,5.4
2023-04-23T15:03:41.161Z,4.6
2023-04-23T15:07:24.149Z,5.3
2023-04-23T15:08:37.699Z,5.5
2023-04-23T15:11:05.956Z,4.1
2023-04-23T15:13:34.217Z,4
2023-04-23T15:16:02.471Z,5.2
2023-04-23T15:18:30.725Z,5.3
2023-04-23T15:20:58.984Z,5.5
2023-04-23T15:23:27.245Z,7.3
2023-04-23T15:25:55.493Z,5.7
2023-04-23T15:28:23.751Z,5.2
2023-04-23T15:30:52.014Z,5.7
2023-04-23T15:32:06.738Z,4.4
2023-04-23T15:33:20.290Z,3.8
2023-04-23T15:38:16.800Z,4.3
2023-04-23T15:40:45.052Z,4
2023-04-23T15:43:13.315Z,4.6
2023-04-23T15:45:41.574Z,3.5
2023-04-23T15:48:09.828Z,5.7
2023-04-23T15:50:38.084Z,3.9
2023-04-23T15:53:06.338Z,3.8
2023-04-23T15:55:34.601Z,5.3
2023-04-23T15:56:49.324Z,3.7
2023-04-23T15:58:02.874Z,3.3
2023-04-23T16:00:31.134Z,3.7
2023-04-23T16:02:59.391Z,4.4
2023-04-23T16:05:27.638Z,5
2023-04-23T16:10:24.158Z,4.4
2023-04-23T16:12:52.414Z,4.2
2023-04-23T16:15:20.668Z,3.9
2023-04-23T16:17:48.927Z,3.5
2023-04-23T16:20:17.186Z,3.2
2023-04-23T16:21:31.916Z,3.4
2023-04-23T16:22:45.463Z,3
2023-04-23T16:25:13.719Z,3
2023-04-23T16:27:41.969Z,4.4
2023-04-23T16:30:10.227Z,4.4
2023-04-23T16:32:38.489Z,5.5
2023-04-23T16:35:06.738Z,3.9
2023-04-23T16:37:35.002Z,6
2023-04-23T16:42:31.514Z,6.5
2023-04-23T16:44:59.766Z,4.2
2023-04-23T16:46:14.501Z,4.4
2023-04-23T16:47:28.047Z,3.7
2023-04-23T16:49:56.305Z,4.1
2023-04-23T16:52:24.561Z,2.6
2023-04-23T16:54:52.814Z,3.3
2023-04-23T16:57:21.071Z,3
2023-04-23T16:59:49.324Z,1.4
2023-04-23T17:02:17.582Z,1.9
2023-04-23T17:04:45.841Z,2
2023-04-23T17:07:14.099Z,1.7
2023-04-23T17:09:42.356Z,2.5
2023-04-23T17:12:10.613Z,1.7
2023-04-23T17:14:38.864Z,4
2023-04-23T17:17:07.123Z,1.9
2023-04-23T17:19:35.384Z,2.8
2023-04-23T17:22:03.632Z,2.9
2023-04-23T17:24:31.897Z,2.5
2023-04-23T17:27:00.148Z,2.2
2023-04-23T17:29:28.406Z,2.3
2023-04-23T17:31:56.658Z,2.2
2023-04-23T17:34:24.919Z,4.9
2023-04-23T17:35:39.667Z,4.1
2023-04-23T17:36:53.211Z,2.9
2023-04-23T17:39:21.474Z,3.2
2023-04-23T17:44:17.984Z,3.3
2023-04-23T17:46:46.240Z,3.7
2023-04-23T17:49:14.498Z,4.7
2023-04-23T17:51:42.754Z,4.5
2023-04-23T17:54:11.016Z,5.1
2023-04-23T17:56:39.272Z,3.6
2023-04-23T17:59:07.531Z,4.4
2023-04-23T18:00:22.259Z,4
2023-04-23T18:01:35.805Z,3.6
2023-04-23T18:04:04.060Z,3.9
2023-04-23T18:06:32.321Z,4
2023-04-23T18:09:00.579Z,6.1
2023-04-23T18:11:28.835Z,10.1
2023-04-23T18:16:25.347Z,6.1
2023-04-23T18:18:53.600Z,4.7
2023-04-23T18:21:21.858Z,6.5
2023-04-23T18:23:50.116Z,4.5
2023-04-23T18:25:04.842Z,4.6
2023-04-23T18:26:18.392Z,5.7
2023-04-23T18:28:46.647Z,5.3
2023-04-23T18:31:14.908Z,5.1
2023-04-23T18:33:43.160Z,5.2
2023-04-23T18:36:11.423Z,4.7
2023-04-23T18:38:39.673Z,3.9
2023-04-23T18:41:07.930Z,6.6
2023-04-23T18:43:36.185Z,7.6
2023-04-23T18:48:32.701Z,6.9
2023-04-23T18:49:47.436Z,5.2
2023-04-23T18:51:00.983Z,8
2023-04-23T18:53:29.230Z,5
2023-04-23T18:55:57.487Z,6.2
2023-04-23T18:58:25.743Z,5.9
2023-04-23T19:00:54.001Z,4.9
2023-04-23T19:03:22.255Z,6
2023-04-23T19:05:50.521Z,5.5
2023-04-23T19:08:18.772Z,5.4
2023-04-23T19:10:47.032Z,9.7
2023-04-23T19:13:15.282Z,9
2023-04-23T19:14:30.017Z,7
2023-04-23T19:18:12.048Z,7.5
2023-04-23T19:20:40.311Z,6.8
2023-04-23T19:23:08.565Z,5.3
2023-04-23T19:25:36.821Z,6
2023-04-23T19:28:05.079Z,4.8
2023-04-23T19:30:33.331Z,5.7
2023-04-23T19:33:01.587Z,4.9
2023-04-23T19:35:29.845Z,6.5
2023-04-23T19:37:58.103Z,6.9
2023-04-23T19:39:12.833Z,6.3
2023-04-23T19:40:26.379Z,6.6
2023-04-23T19:42:54.638Z,7.5
2023-04-23T19:45:22.888Z,5.1
2023-04-23T19:50:19.410Z,6.2
2023-04-23T19:52:47.661Z,4.7
2023-04-23T19:55:15.923Z,6.6
2023-04-23T19:57:44.175Z,7
2023-04-23T20:00:12.434Z,5.8
2023-04-23T20:02:40.686Z,7.1
2023-04-23T20:03:55.414Z,7.6
2023-04-23T20:05:08.961Z,5.7
2023-04-23T20:07:37.217Z,5.9
2023-04-23T20:10:05.482Z,6.9
2023-04-23T20:12:33.732Z,5.7
2023-04-23T20:15:01.990Z,5.7
2023-04-23T20:17:30.252Z,6.8
2023-04-23T20:22:26.762Z,6.4
2023-04-23T20:24:55.019Z,6.3
2023-04-23T20:27:23.273Z,7
2023-04-23T20:28:38.006Z,8.1
2023-04-23T20:29:51.549Z,6.6
2023-04-23T20:32:19.807Z,8
2023-04-23T20:34:48.072Z,6
2023-04-23T20:37:16.321Z,6.6
2023-04-23T20:39:44.582Z,6.2
2023-04-23T20:42:12.841Z,6.8
2023-04-23T20:44:41.098Z,5.8
2023-04-23T20:47:09.352Z,6.2
2023-04-23T20:49:37.609Z,6.5
2023-04-23T20:53:20.593Z,6
2023-04-23T20:54:34.145Z,8.7
2023-04-23T20:57:02.399Z,6.8
2023-04-23T20:59:30.656Z,7.1
2023-04-23T21:01:58.909Z,7.3
2023-04-23T21:04:27.173Z,7
2023-04-23T21:06:55.428Z,6.7
2023-04-23T21:09:23.686Z,7.2
2023-04-23T21:11:51.943Z,8.4
2023-04-23T21:14:20.197Z,7.3
2023-04-23T21:16:48.453Z,6.3
2023-04-23T21:18:03.187Z,8.2
2023-04-23T21:19:16.729Z,7.2
2023-04-23T21:24:13.247Z,7
2023-04-23T21:26:41.506Z,6.6
2023-04-23T21:29:09.762Z,6.1
2023-04-23T21:31:38.016Z,6.1
2023-04-23T21:34:06.272Z,7
2023-04-23T21:36:34.534Z,6.9
2023-04-23T21:39:02.793Z,5.7
2023-04-23T21:41:31.044Z,6.5
2023-04-23T21:42:45.780Z,8.1
2023-04-23T21:43:59.355Z,8.8
2023-04-23T21:46:27.582Z,9.7
2023-04-23T21:48:55.832Z,7.4
2023-04-23T21:51:24.092Z,7.6
2023-04-23T21:56:20.602Z,8
2023-04-23T21:58:48.865Z,9
2023-04-23T22:01:17.121Z,10.6
2023-04-23T22:03:45.376Z,8.8
2023-04-23T22:06:13.631Z,8.6
2023-04-23T22:07:28.365Z,9.5
2023-04-23T22:08:41.910Z,9.5
2023-04-23T22:11:10.162Z,10.3
2023-04-23T22:13:38.424Z,9.7
2023-04-23T22:16:06.681Z,12.4
2023-04-23T22:18:34.933Z,9.6
2023-04-23T22:21:03.192Z,9.2
2023-04-23T22:23:31.446Z,9.9
2023-04-23T22:28:27.962Z,9
2023-04-23T22:30:56.217Z,10.1
2023-04-23T22:32:10.952Z,8.6
2023-04-23T22:33:24.498Z,8.6
2023-04-23T22:35:52.748Z,8.3
2023-04-23T22:38:21.009Z,7.9
2023-04-23T22:40:49.263Z,7.6
2023-04-23T22:43:17.517Z,9.3
2023-04-23T22:45:45.783Z,7.3
2023-04-23T22:48:14.039Z,7.8
2023-04-23T22:50:42.287Z,7
2023-04-23T22:53:10.548Z,7.2
2023-04-23T22:55:38.802Z,7.5
2023-04-23T22:58:07.065Z,8.3
2023-04-23T23:00:35.317Z,8.3
2023-04-23T23:03:03.574Z,6.2
2023-04-23T23:05:31.838Z,6.4
2023-04-23T23:08:00.092Z,6.1
2023-04-23T23:10:28.351Z,6.3
2023-04-23T23:12:56.607Z,6.9
2023-04-23T23:15:24.859Z,10.7
2023-04-23T23:17:53.115Z,6.2
2023-04-23T23:20:21.375Z,6.4
2023-04-23T23:21:36.116Z,6.5
2023-04-23T23:22:49.664Z,6.9
2023-04-23T23:25:17.925Z,6.4
2023-04-23T23:30:14.433Z,6.4
2023-04-23T23:32:42.689Z,7.3
2023-04-23T23:35:10.953Z,7.1
2023-04-23T23:37:39.205Z,8.5
2023-04-23T23:40:07.467Z,7.4
2023-04-23T23:42:35.721Z,7.8
2023-04-23T23:45:03.980Z,7.8
2023-04-23T23:46:18.708Z,7.7
2023-04-23T23:47:32.257Z,7
2023-04-23T23:50:00.509Z,7.5
2023-04-23T23:52:28.781Z,9.2
2023-04-23T23:54:57.029Z,6.7
2023-04-23T23:57:25.287Z,6.9
